createdAt,value
2016-11-28T07:26:43.649Z,-1.85
2016-11-28T07:27:57.667Z,-1.88
2016-11-28T07:29:12.675Z,-1.95
2016-11-28T07:30:29.418Z,-1.77
2016-11-28T07:31:44.906Z,-1.92
2016-11-28T07:32:58.936Z,-1.81
2016-11-28T07:34:13.332Z,-1.81
2016-11-28T07:35:27.644Z,-1.66
2016-11-28T07:36:43.925Z,-1.67
2016-11-28T07:37:58.698Z,-1.67
2016-11-28T07:39:13.670Z,-1.74
2016-11-28T07:40:29.137Z,-1.59
2016-11-28T07:41:45.215Z,-1.63
2016-11-28T07:43:02.064Z,-1.59
2016-11-28T07:44:17.155Z,-1.56
2016-11-28T07:45:30.313Z,-1.51
2016-11-28T07:46:45.504Z,-1.36
2016-11-28T07:47:56.183Z,-1.21
2016-11-28T07:49:10.257Z,-0.87
2016-11-28T07:50:26.722Z,-0.47
2016-11-28T07:51:41.586Z,-0.06
2016-11-28T07:52:54.571Z,0.3
2016-11-28T07:54:08.121Z,0.58
2016-11-28T07:55:23.147Z,0.85
2016-11-28T07:56:39.908Z,1.18
2016-11-28T07:57:55.055Z,1.46
2016-11-28T07:59:08.384Z,1.69
2016-11-28T08:00:25.113Z,2.06
2016-11-28T08:01:38.835Z,2.17
2016-11-28T08:02:55.209Z,2.51
2016-11-28T08:04:10.720Z,2.66
2016-11-28T08:05:24.595Z,2.91
2016-11-28T08:06:40.885Z,3.21
2016-11-28T08:07:54.617Z,3.47
2016-11-28T08:09:09.443Z,3.71
2016-11-28T08:10:21.389Z,3.94
2016-11-28T08:11:38.406Z,4.21
2016-11-28T08:12:55.616Z,4.46
2016-11-28T08:14:11.964Z,4.79
2016-11-28T08:15:26.644Z,4.88
2016-11-28T08:16:43.231Z,5.22
2016-11-28T08:18:00.345Z,5.55
2016-11-28T08:19:14.727Z,5.77
2016-11-28T08:20:28.519Z,6.03
2016-11-28T08:21:44.250Z,6.22
2016-11-28T08:23:00.183Z,6.47
2016-11-28T08:24:16.322Z,6.58
2016-11-28T08:25:32.406Z,6.86
2016-11-28T08:26:46.825Z,7.24
2016-11-28T08:28:03.526Z,7.44
2016-11-28T08:29:16.593Z,7.6
2016-11-28T08:30:31.636Z,7.79
2016-11-28T08:31:46.085Z,7.87
2016-11-28T08:33:00.748Z,8.1
2016-11-28T08:34:14.778Z,8.07
2016-11-28T08:35:30.669Z,8.04
2016-11-28T08:36:45.346Z,8.18
2016-11-28T08:38:01.653Z,8.26
2016-11-28T08:39:16.828Z,8.5
2016-11-28T08:40:32.475Z,8.53
2016-11-28T08:41:49.046Z,8.71
2016-11-28T08:43:03.921Z,8.94
2016-11-28T08:44:19.462Z,9.31
2016-11-28T08:45:33.683Z,9.52
2016-11-28T08:46:48.342Z,9.66
2016-11-28T08:48:05.043Z,9.91
2016-11-28T08:49:17.949Z,9.85
2016-11-28T08:50:32.644Z,9.88
2016-11-28T08:51:49.524Z,9.78
2016-11-28T08:53:03.245Z,9.86
2016-11-28T08:54:20.206Z,9.71
2016-11-28T08:55:33.911Z,9.73
2016-11-28T08:56:50.739Z,9.7
2016-11-28T08:58:07.751Z,9.68
2016-11-28T08:59:24.299Z,9.78
2016-11-28T09:00:39.759Z,9.63
2016-11-28T09:01:55.951Z,9.58
2016-11-28T09:03:10.589Z,9.6
2016-11-28T09:04:26.440Z,9.48
2016-11-28T09:05:41.920Z,9.31
2016-11-28T09:06:58.659Z,9.27
2016-11-28T09:08:14.618Z,9.3
2016-11-28T09:09:29.395Z,9.24
2016-11-28T09:10:43.359Z,9.28
2016-11-28T09:11:58.540Z,9.39
2016-11-28T09:13:13.393Z,9.35
2016-11-28T09:14:25.253Z,9.27
2016-11-28T09:15:39.068Z,9.27
2016-11-28T09:16:55.379Z,9.58
2016-11-28T09:18:10.646Z,9.52
2016-11-28T09:19:26.511Z,9.57
2016-11-28T09:20:41.228Z,9.53
2016-11-28T09:21:57.744Z,9.52
2016-11-28T09:23:13.443Z,9.64
2016-11-28T09:24:29.731Z,9.73
2016-11-28T09:25:46.084Z,9.88
2016-11-28T09:27:02.805Z,9.93
2016-11-28T09:28:19.126Z,10
2016-11-28T09:29:34.023Z,10
2016-11-28T09:30:50.570Z,10.24
2016-11-28T09:32:06.739Z,10.44
2016-11-28T09:33:19.174Z,10.44
2016-11-28T09:34:35.337Z,10.39
2016-11-28T09:35:51.516Z,10.44
2016-11-28T09:37:07.682Z,10.43
2016-11-28T09:38:23.187Z,10.63
2016-11-28T09:39:38.010Z,10.63
2016-11-28T09:40:51.483Z,10.55
2016-11-28T09:42:05.838Z,10.52
2016-11-28T09:43:20.178Z,10.43
2016-11-28T09:44:36.250Z,10.36
2016-11-28T09:45:52.717Z,10.3
2016-11-28T09:47:09.481Z,10.42
2016-11-28T09:48:25.012Z,10.42
2016-11-28T09:49:40.278Z,10.19
2016-11-28T09:50:56.798Z,10.07
2016-11-28T09:52:12.549Z,10.1
2016-11-28T09:53:29.338Z,10.15
2016-11-28T09:54:43.979Z,10.32
2016-11-28T09:55:57.483Z,10.34
2016-11-28T09:57:12.502Z,10.43
2016-11-28T09:58:28.921Z,10.43
2016-11-28T09:59:42.261Z,10.47
2016-11-28T10:00:58.868Z,10.33
2016-11-28T10:02:14.549Z,10.33
2016-11-28T10:03:27.907Z,10.3
2016-11-28T10:04:44.098Z,10.47
2016-11-28T10:05:57.565Z,10.52
2016-11-28T10:07:12.554Z,10.63
2016-11-28T10:08:27.170Z,10.99
2016-11-28T10:09:43.943Z,11.07
2016-11-28T10:11:00.251Z,11.09
2016-11-28T10:12:15.150Z,11.25
2016-11-28T10:13:31.858Z,11.28
2016-11-28T10:14:47.779Z,11.25
2016-11-28T10:16:02.229Z,11.2
2016-11-28T10:17:18.539Z,11.31
2016-11-28T10:18:34.496Z,11.36
2016-11-28T10:19:50.222Z,11.32
2016-11-28T10:21:04.667Z,11.46
2016-11-28T10:22:21.357Z,11.31
2016-11-28T10:23:35.977Z,11.24
2016-11-28T10:24:51.795Z,11.19
2016-11-28T10:26:06.161Z,11.24
2016-11-28T10:27:20.849Z,11.14
2016-11-28T10:28:36.790Z,11.06
2016-11-28T10:29:52.858Z,10.84
2016-11-28T10:31:09.039Z,10.68
2016-11-28T10:32:24.686Z,10.58
2016-11-28T10:33:41.482Z,10.43
2016-11-28T10:34:55.027Z,10.34
2016-11-28T10:36:11.157Z,10.28
2016-11-28T10:37:25.839Z,10.18
2016-11-28T10:38:42.348Z,10.04
2016-11-28T10:39:57.501Z,9.83
2016-11-28T10:41:14.387Z,9.58
2016-11-28T10:42:28.235Z,9.25
2016-11-28T10:43:40.920Z,9.06
2016-11-28T10:44:56.585Z,8.75
2016-11-28T10:46:16.105Z,8.39
2016-11-28T10:47:30.326Z,8.14
2016-11-28T10:48:45.991Z,7.78
2016-11-28T10:50:02.042Z,7.38
2016-11-28T10:51:16.077Z,7.08
2016-11-28T10:52:32.778Z,6.84
2016-11-28T10:53:47.246Z,6.66
2016-11-28T10:55:16.859Z,6.38
2016-11-28T10:56:31.948Z,5.93
2016-11-28T10:57:48.306Z,5.78
2016-11-28T10:59:02.085Z,5.57
2016-11-28T11:00:18.499Z,5.45
2016-11-28T11:01:34.309Z,5.2
2016-11-28T11:03:04.927Z,5.1
2016-11-28T11:04:19.607Z,4.83
2016-11-28T11:05:34.061Z,4.72
2016-11-28T11:06:50.359Z,4.59
2016-11-28T11:08:05.290Z,4.61
2016-11-28T11:09:22.128Z,4.43
2016-11-28T11:10:38.763Z,4.36
2016-11-28T11:11:52.341Z,4.18
2016-11-28T11:13:06.104Z,4.24
2016-11-28T11:14:22.383Z,4.12
2016-11-28T11:15:35.934Z,4.07
2016-11-28T11:16:51.920Z,4.06
2016-11-28T11:18:07.995Z,3.97
2016-11-28T11:19:24.083Z,3.85
2016-11-28T11:20:38.912Z,3.83
2016-11-28T11:21:54.688Z,3.9
2016-11-28T11:23:09.814Z,3.76
2016-11-28T11:24:24.722Z,3.79
2016-11-28T11:25:39.472Z,3.68
2016-11-28T11:26:52.451Z,3.8
2016-11-28T11:28:05.578Z,3.86
2016-11-28T11:29:22.115Z,3.79
2016-11-28T11:30:36.811Z,3.68
2016-11-28T11:31:50.701Z,3.65
2016-11-28T11:33:05.208Z,3.7
2016-11-28T11:34:19.889Z,3.7
2016-11-28T11:35:36.742Z,3.68
2016-11-28T11:36:52.777Z,3.79
2016-11-28T11:38:07.618Z,3.68
2016-11-28T11:39:23.227Z,3.7
2016-11-28T11:40:40.395Z,3.65
2016-11-28T11:41:55.153Z,3.58
2016-11-28T11:43:10.418Z,3.49
2016-11-28T11:44:25.292Z,3.52
2016-11-28T11:45:41.976Z,3.52
2016-11-28T11:46:57.058Z,3.5
2016-11-28T11:48:11.905Z,3.53
2016-11-28T11:49:28.222Z,3.54
2016-11-28T11:50:44.114Z,3.46
2016-11-28T11:51:57.104Z,3.54
2016-11-28T11:53:10.969Z,3.39
2016-11-28T11:54:26.491Z,3.43
2016-11-28T11:55:43.089Z,3.46
2016-11-28T11:56:57.778Z,3.44
2016-11-28T11:58:14.097Z,3.3
2016-11-28T11:59:26.868Z,3.33
2016-11-28T12:00:42.000Z,3.24
2016-11-28T12:01:56.431Z,3.3
2016-11-28T12:03:10.871Z,3.28
2016-11-28T12:04:27.312Z,3.3
2016-11-28T12:05:42.064Z,3.27
2016-11-28T12:06:55.123Z,3.3
2016-11-28T12:08:10.218Z,3.3
2016-11-28T12:09:26.684Z,3.25
2016-11-28T12:10:41.111Z,3.25
2016-11-28T12:11:57.573Z,3.28
2016-11-28T12:13:13.079Z,3.28
2016-11-28T12:14:26.808Z,3.23
2016-11-28T12:15:41.570Z,3.28
2016-11-28T12:16:57.715Z,3.23
2016-11-28T12:18:12.182Z,3.28
2016-11-28T12:19:26.607Z,3.3
2016-11-28T12:20:41.359Z,3.3
2016-11-28T12:21:54.352Z,3.23
2016-11-28T12:23:10.689Z,3.27
2016-11-28T12:24:26.751Z,3.24
2016-11-28T12:25:43.246Z,3.23
2016-11-28T12:26:57.605Z,3.28
2016-11-28T12:28:12.302Z,3.31
2016-11-28T12:29:26.829Z,3.28
2016-11-28T12:30:40.059Z,3.3
2016-11-28T12:31:55.570Z,3.24
2016-11-28T12:33:09.992Z,3.27
2016-11-28T12:34:25.963Z,3.24
2016-11-28T12:35:42.538Z,3.27
2016-11-28T12:36:54.736Z,3.24
2016-11-28T12:38:10.665Z,3.24
2016-11-28T12:39:24.689Z,3.23
2016-11-28T12:40:38.723Z,3.27
2016-11-28T12:41:54.604Z,3.23
2016-11-28T12:43:09.436Z,3.23
2016-11-28T12:44:26.164Z,3.25
2016-11-28T12:45:40.831Z,3.12
2016-11-28T12:46:56.600Z,3.12
2016-11-28T12:48:12.761Z,3.18
2016-11-28T12:49:28.811Z,3.18
2016-11-28T12:50:43.953Z,3.21
2016-11-28T12:51:55.807Z,3.15
2016-11-28T12:53:12.105Z,3.13
2016-11-28T12:54:27.271Z,3.16
2016-11-28T12:55:41.824Z,3.12
2016-11-28T12:56:58.113Z,3.12
2016-11-28T12:58:14.882Z,3.13
2016-11-28T12:59:29.576Z,3.16
2016-11-28T13:00:44.796Z,3.13
2016-11-28T13:02:00.249Z,3.18
2016-11-28T13:03:09.358Z,3.13
2016-11-28T13:04:25.517Z,3.25
2016-11-28T13:05:40.620Z,3.21
2016-11-28T13:06:54.271Z,3.21
2016-11-28T13:08:09.381Z,3.16
2016-11-28T13:09:21.299Z,3.1
2016-11-28T13:10:38.284Z,3.2
2016-11-28T13:11:51.474Z,3.21
2016-11-28T13:13:08.029Z,3.2
2016-11-28T13:14:21.042Z,3.1
2016-11-28T13:15:34.543Z,3.12
2016-11-28T13:16:47.840Z,3.07
2016-11-28T13:18:04.440Z,3.09
2016-11-28T13:19:20.888Z,3.09
2016-11-28T13:20:37.634Z,3
2016-11-28T13:21:51.187Z,3.06
2016-11-28T13:23:06.698Z,2.98
2016-11-28T13:24:21.813Z,3.09
2016-11-28T13:25:38.333Z,3
2016-11-28T13:26:52.883Z,3.03
2016-11-28T13:28:06.349Z,2.91
2016-11-28T13:29:20.685Z,2.95
2016-11-28T13:30:35.392Z,2.94
2016-11-28T13:31:50.711Z,2.95
2016-11-28T13:33:06.102Z,2.92
2016-11-28T13:34:21.916Z,2.92
2016-11-28T13:35:37.998Z,2.85
2016-11-28T13:36:53.244Z,2.95
2016-11-28T13:38:09.327Z,2.95
2016-11-28T13:39:24.412Z,2.89
2016-11-28T13:40:40.808Z,2.88
2016-11-28T13:41:56.854Z,2.89
2016-11-28T13:43:13.749Z,2.92
2016-11-28T13:44:27.994Z,2.92
2016-11-28T13:45:44.775Z,2.92
2016-11-28T13:47:03.819Z,2.84
2016-11-28T13:48:15.614Z,2.88
2016-11-28T13:49:32.344Z,2.87
2016-11-28T13:50:47.680Z,2.85
2016-11-28T13:52:02.650Z,2.79
2016-11-28T13:53:18.968Z,2.89
2016-11-28T13:54:32.159Z,2.85
2016-11-28T13:55:48.736Z,2.81
2016-11-28T13:57:05.087Z,2.81
2016-11-28T13:58:20.898Z,2.81
2016-11-28T13:59:36.043Z,2.81
2016-11-28T14:00:49.188Z,2.84
2016-11-28T14:02:03.003Z,2.73
2016-11-28T14:03:18.526Z,2.67
2016-11-28T14:04:34.481Z,2.76
2016-11-28T14:05:49.604Z,2.71
2016-11-28T14:07:03.245Z,2.7
2016-11-28T14:08:17.555Z,2.7
2016-11-28T14:09:32.202Z,2.71
2016-11-28T14:10:47.868Z,2.66
2016-11-28T14:12:03.677Z,2.59
2016-11-28T14:13:19.726Z,2.66
2016-11-28T14:14:34.860Z,2.69
2016-11-28T14:15:47.907Z,2.59
2016-11-28T14:17:04.582Z,2.63
2016-11-28T14:18:19.542Z,2.61
2016-11-28T14:19:33.943Z,2.56
2016-11-28T14:20:48.488Z,2.59
2016-11-28T14:22:04.391Z,2.53
2016-11-28T14:23:21.004Z,2.55
2016-11-28T14:24:31.545Z,2.52
2016-11-28T14:25:46.131Z,2.52
2016-11-28T14:27:01.646Z,2.52
2016-11-28T14:28:17.347Z,2.56
2016-11-28T14:29:34.891Z,2.53
2016-11-28T14:30:51.147Z,2.48
2016-11-28T14:32:06.223Z,2.49
2016-11-28T14:33:22.629Z,2.41
2016-11-28T14:34:37.805Z,2.38
2016-11-28T14:35:51.540Z,2.3
2016-11-28T14:37:08.515Z,2.28
2016-11-28T14:38:24.646Z,2.3
2016-11-28T14:39:40.195Z,2.23
2016-11-28T14:40:54.964Z,2.27
2016-11-28T14:42:11.381Z,2.27
2016-11-28T14:43:26.507Z,2.28
2016-11-28T14:44:43.052Z,2.15
2016-11-28T14:45:59.521Z,2.13
2016-11-28T14:47:15.553Z,2.15
2016-11-28T14:48:32.106Z,2.12
2016-11-28T14:49:46.817Z,2.16
2016-11-28T14:51:01.909Z,2.02
2016-11-28T14:52:18.054Z,2.12
2016-11-28T14:53:32.893Z,2.08
2016-11-28T14:54:46.049Z,1.97
2016-11-28T14:55:59.821Z,1.97
2016-11-28T14:57:15.063Z,1.89
2016-11-28T14:58:31.757Z,1.87
2016-11-28T14:59:48.061Z,1.85
2016-11-28T15:01:04.421Z,1.8
2016-11-28T15:02:19.605Z,1.82
2016-11-28T15:03:34.611Z,1.71
2016-11-28T15:04:49.754Z,1.68
2016-11-28T15:06:06.107Z,1.69
2016-11-28T15:07:19.012Z,1.64
2016-11-28T15:08:32.066Z,1.61
2016-11-28T15:09:49.194Z,1.52
2016-11-28T15:11:04.163Z,1.6
2016-11-28T15:12:18.841Z,1.43
2016-11-28T15:13:33.708Z,1.47
2016-11-28T15:14:50.179Z,1.42
2016-11-28T15:16:05.269Z,1.39
2016-11-28T15:17:21.348Z,1.4
2016-11-28T15:18:37.898Z,1.37
2016-11-28T15:19:54.442Z,1.34
2016-11-28T15:21:06.334Z,1.21
2016-11-28T15:22:20.865Z,1.25
2016-11-28T15:23:36.947Z,1.26
2016-11-28T15:24:52.722Z,1.18
2016-11-28T15:26:08.869Z,1.12
2016-11-28T15:27:25.593Z,1.1
2016-11-28T15:28:42.345Z,1.1
2016-11-28T15:29:58.115Z,1.03
2016-11-28T15:31:14.420Z,1.07
2016-11-28T15:32:29.081Z,0.96
2016-11-28T15:33:42.506Z,0.96
2016-11-28T15:34:59.250Z,0.94
2016-11-28T15:36:14.340Z,0.94
2016-11-28T15:37:29.100Z,0.94
2016-11-28T15:38:45.830Z,0.94
2016-11-28T15:39:59.720Z,0.86
2016-11-28T15:41:15.748Z,0.82
2016-11-28T15:42:32.300Z,0.71
2016-11-28T15:43:45.922Z,0.78
2016-11-28T15:44:58.031Z,0.65
2016-11-28T15:46:13.049Z,0.65
2016-11-28T15:47:28.198Z,0.57
2016-11-28T15:48:42.914Z,0.53
2016-11-28T15:49:58.956Z,0.53
2016-11-28T15:51:15.915Z,0.45
2016-11-28T15:52:31.969Z,0.42
2016-11-28T15:53:48.605Z,0.43
2016-11-28T15:55:05.377Z,0.36
2016-11-28T15:56:21.123Z,0.34
2016-11-28T15:57:35.725Z,0.38
2016-11-28T15:58:48.870Z,0.31
2016-11-28T16:00:03.495Z,0.31
2016-11-28T16:01:17.188Z,0.33
2016-11-28T16:02:33.612Z,0.23
2016-11-28T16:03:46.706Z,0.23
2016-11-28T16:05:01.341Z,0.18
2016-11-28T16:06:16.103Z,0.18
2016-11-28T16:07:32.393Z,0.2
2016-11-28T16:08:49.103Z,0.13
2016-11-28T16:10:03.824Z,0.1
2016-11-28T16:11:17.779Z,0.1
2016-11-28T16:12:29.959Z,0.2
2016-11-28T16:13:44.876Z,0.1
2016-11-28T16:14:59.241Z,0.1
2016-11-28T16:16:15.962Z,0.02
2016-11-28T16:17:30.636Z,-0.04
2016-11-28T16:18:46.186Z,-0.04
2016-11-28T16:20:00.851Z,-0.08
2016-11-28T16:21:15.532Z,-0.13
2016-11-28T16:22:30.229Z,-0.09
2016-11-28T16:23:44.908Z,-0.19
2016-11-28T16:25:00.447Z,-0.23
2016-11-28T16:26:15.139Z,-0.19
2016-11-28T16:27:28.611Z,-0.26
2016-11-28T16:28:43.477Z,-0.24
2016-11-28T16:30:00.017Z,-0.26
2016-11-28T16:31:14.491Z,-0.23
2016-11-28T16:32:26.270Z,-0.19
2016-11-28T16:33:42.555Z,-0.19
2016-11-28T16:34:55.977Z,-0.23
2016-11-28T16:36:09.520Z,-0.23
2016-11-28T16:37:26.502Z,-0.23
2016-11-28T16:38:41.826Z,-0.27
2016-11-28T16:39:58.086Z,-0.22
2016-11-28T16:41:13.577Z,-0.26
2016-11-28T16:42:29.838Z,-0.34
2016-11-28T16:43:46.256Z,-0.37
2016-11-28T16:44:59.678Z,-0.42
2016-11-28T16:46:14.139Z,-0.55
2016-11-28T16:47:30.444Z,-0.51
2016-11-28T16:48:44.939Z,-0.54
2016-11-28T16:49:59.633Z,-0.48
2016-11-28T16:51:16.495Z,-0.51
2016-11-28T16:52:32.987Z,-0.47
2016-11-28T16:53:47.586Z,-0.52
2016-11-28T16:55:04.375Z,-0.5
2016-11-28T16:56:18.907Z,-0.57
2016-11-28T16:57:32.743Z,-0.52
2016-11-28T16:58:47.351Z,-0.63
2016-11-28T17:00:02.178Z,-0.69
2016-11-28T17:01:17.090Z,-0.68
2016-11-28T17:02:34.449Z,-0.68
2016-11-28T17:03:47.465Z,-0.73
2016-11-28T17:04:59.656Z,-0.73
2016-11-28T17:06:14.951Z,-0.8
2016-11-28T17:07:31.036Z,-0.72
2016-11-28T17:08:47.101Z,-0.84
2016-11-28T17:10:04.031Z,-0.68
2016-11-28T17:11:17.659Z,-0.73
2016-11-28T17:12:32.941Z,-0.8
2016-11-28T17:13:48.296Z,-0.7
2016-11-28T17:15:01.881Z,-0.83
2016-11-28T17:16:18.495Z,-0.83
2016-11-28T17:17:33.324Z,-0.83
2016-11-28T17:18:49.306Z,-0.78
2016-11-28T17:20:04.190Z,-0.89
2016-11-28T17:21:20.484Z,-0.86
2016-11-28T17:22:37.139Z,-0.86
2016-11-28T17:23:52.101Z,-0.94
2016-11-28T17:25:07.079Z,-0.92
2016-11-28T17:26:23.134Z,-0.97
2016-11-28T17:27:38.273Z,-0.94
2016-11-28T17:28:52.633Z,-1.07
2016-11-28T17:30:05.907Z,-1.12
2016-11-28T17:31:21.069Z,-1.07
2016-11-28T17:32:36.015Z,-1.1
2016-11-28T17:33:52.375Z,-1.13
2016-11-28T17:35:06.208Z,-1.17
2016-11-28T17:36:20.739Z,-1.05
2016-11-28T17:37:36.813Z,-1.1
2016-11-28T17:38:53.139Z,-1.12
2016-11-28T17:40:08.946Z,-1.1
2016-11-28T17:41:22.509Z,-1.13
2016-11-28T17:42:39.117Z,-1.15
2016-11-28T17:43:56.070Z,-1.21
2016-11-28T17:45:12.151Z,-1.23
2016-11-28T17:46:25.707Z,-1.3
2016-11-28T17:47:39.713Z,-1.28
2016-11-28T17:48:54.476Z,-1.36
2016-11-28T17:50:07.509Z,-1.45
2016-11-28T17:51:21.242Z,-1.49
2016-11-28T17:52:38.229Z,-1.31
2016-11-28T17:53:51.925Z,-1.42
2016-11-28T17:55:06.902Z,-1.3
2016-11-28T17:56:23.591Z,-1.46
2016-11-28T17:57:39.131Z,-1.41
2016-11-28T17:58:53.275Z,-1.46
2016-11-28T18:00:06.603Z,-1.35
2016-11-28T18:01:21.881Z,-1.39
2016-11-28T18:02:38.548Z,-1.46
2016-11-28T18:03:53.522Z,-1.45
2016-11-28T18:05:08.822Z,-1.45
2016-11-28T18:06:24.720Z,-1.42
2016-11-28T18:07:39.778Z,-1.45
2016-11-28T18:08:56.526Z,-1.46
2016-11-28T18:10:12.815Z,-1.56
2016-11-28T18:11:28.955Z,-1.51
2016-11-28T18:12:43.733Z,-1.57
2016-11-28T18:13:58.403Z,-1.6
2016-11-28T18:15:14.341Z,-1.64
2016-11-28T18:16:30.496Z,-1.63
2016-11-28T18:17:43.897Z,-1.72
2016-11-28T18:18:58.593Z,-1.69
2016-11-28T18:20:15.313Z,-1.75
2016-11-28T18:21:29.512Z,-1.77
2016-11-28T18:22:44.257Z,-1.74
2016-11-28T18:23:59.234Z,-1.92
2016-11-28T18:25:13.651Z,-1.85
2016-11-28T18:26:28.279Z,-1.85
2016-11-28T18:27:43.639Z,-1.85
2016-11-28T18:28:58.688Z,-1.92
2016-11-28T18:30:13.306Z,-1.93
2016-11-28T18:31:27.183Z,-1.88
2016-11-28T18:32:44.007Z,-1.92
2016-11-28T18:33:56.287Z,-2.05
2016-11-28T18:35:12.760Z,-2.05
2016-11-28T18:36:28.414Z,-2.02
2016-11-28T18:37:42.967Z,-2.06
2016-11-28T18:38:59.504Z,-2.06
2016-11-28T18:40:14.926Z,-2.13
2016-11-28T18:41:29.343Z,-2.06
2016-11-28T18:42:45.918Z,-2.08
2016-11-28T18:44:02.455Z,-2.11
2016-11-28T18:45:17.273Z,-2.11
2016-11-28T18:46:33.601Z,-2.11
2016-11-28T18:47:45.745Z,-2.18
2016-11-28T18:49:03.059Z,-2.23
2016-11-28T18:50:19.386Z,-2.16
2016-11-28T18:51:35.348Z,-2.29
2016-11-28T18:52:50.071Z,-2.26
2016-11-28T18:54:03.237Z,-2.26
2016-11-28T18:55:19.537Z,-2.29
2016-11-28T18:56:32.363Z,-2.23
2016-11-28T18:57:44.320Z,-2.32
2016-11-28T18:59:00.839Z,-2.35
2016-11-28T19:00:15.205Z,-2.36
2016-11-28T19:01:28.656Z,-2.33
2016-11-28T19:02:41.524Z,-2.36
2016-11-28T19:03:55.181Z,-2.36
2016-11-28T19:05:11.335Z,-2.4
2016-11-28T19:06:25.776Z,-2.43
2016-11-28T19:07:40.688Z,-2.32
2016-11-28T19:08:55.915Z,-2.42
2016-11-28T19:10:10.287Z,-2.43
2016-11-28T19:11:22.407Z,-2.45
2016-11-28T19:12:34.749Z,-2.43
2016-11-28T19:13:50.070Z,-2.4
2016-11-28T19:15:04.401Z,-2.47
2016-11-28T19:16:20.140Z,-2.42
2016-11-28T19:17:33.552Z,-2.45
2016-11-28T19:18:50.330Z,-2.33
2016-11-28T19:20:06.717Z,-2.4
2016-11-28T19:21:21.450Z,-2.48
2016-11-28T19:22:38.495Z,-2.47
2016-11-28T19:23:52.354Z,-2.48
2016-11-28T19:25:04.503Z,-2.47
2016-11-28T19:26:19.766Z,-2.47
2016-11-28T19:27:34.011Z,-2.58
2016-11-28T19:28:47.453Z,-2.51
2016-11-28T19:30:02.616Z,-2.6
2016-11-28T19:31:18.428Z,-2.61
2016-11-28T19:32:33.277Z,-2.61
2016-11-28T19:33:49.179Z,-2.66
2016-11-28T19:35:03.788Z,-2.64
2016-11-28T19:36:20.346Z,-2.6
2016-11-28T19:37:36.083Z,-2.63
2016-11-28T19:38:50.121Z,-2.66
2016-11-28T19:40:05.245Z,-2.66
2016-11-28T19:41:21.398Z,-2.68
2016-11-28T19:42:35.353Z,-2.66
2016-11-28T19:43:47.078Z,-2.6
2016-11-28T19:45:02.038Z,-2.58
2016-11-28T19:46:16.490Z,-2.63
2016-11-28T19:47:31.266Z,-2.57
2016-11-28T19:48:47.496Z,-2.5
2016-11-28T19:50:02.197Z,-2.51
2016-11-28T19:51:16.649Z,-2.58
2016-11-28T19:52:31.867Z,-2.51
2016-11-28T19:53:45.405Z,-2.51
2016-11-28T19:55:00.896Z,-2.51
2016-11-28T19:56:17.044Z,-2.51
2016-11-28T19:57:32.072Z,-2.6
2016-11-28T19:58:48.388Z,-2.58
2016-11-28T20:00:04.389Z,-2.51
2016-11-28T20:01:18.970Z,-2.63
2016-11-28T20:02:32.271Z,-2.61
2016-11-28T20:03:46.630Z,-2.61
2016-11-28T20:05:03.655Z,-2.6
2016-11-28T20:06:17.641Z,-2.64
2016-11-28T20:07:30.895Z,-2.64
2016-11-28T20:08:45.193Z,-2.6
2016-11-28T20:10:01.340Z,-2.61
2016-11-28T20:11:14.416Z,-2.69
2016-11-28T20:12:27.606Z,-2.74
2016-11-28T20:13:41.614Z,-2.76
2016-11-28T20:14:56.414Z,-2.74
2016-11-28T20:16:12.974Z,-2.74
2016-11-28T20:17:26.148Z,-2.71
2016-11-28T20:18:41.009Z,-2.71
2016-11-28T20:19:56.240Z,-2.71
2016-11-28T20:21:10.974Z,-2.82
2016-11-28T20:22:27.020Z,-2.87
2016-11-28T20:23:43.725Z,-2.89
2016-11-28T20:24:58.745Z,-2.85
2016-11-28T20:26:12.521Z,-2.9
2016-11-28T20:27:29.005Z,-2.93
2016-11-28T20:28:44.236Z,-2.81
2016-11-28T20:30:00.559Z,-2.86
2016-11-28T20:31:16.103Z,-2.87
2016-11-28T20:32:32.338Z,-2.85
2016-11-28T20:33:45.834Z,-2.87
2016-11-28T20:35:01.011Z,-2.85
2016-11-28T20:36:13.668Z,-2.94
2016-11-28T20:37:30.550Z,-2.97
2016-11-28T20:38:46.054Z,-3
2016-11-28T20:40:02.387Z,-2.96
2016-11-28T20:41:18.449Z,-2.96
2016-11-28T20:42:30.243Z,-2.9
2016-11-28T20:43:44.960Z,-2.93
2016-11-28T20:44:59.597Z,-2.94
2016-11-28T20:46:14.069Z,-2.94
2016-11-28T20:47:27.697Z,-2.96
2016-11-28T20:48:40.687Z,-2.9
2016-11-28T20:49:56.878Z,-2.99
2016-11-28T20:51:11.318Z,-2.96
2016-11-28T20:52:24.361Z,-2.99
2016-11-28T20:53:39.469Z,-2.94
2016-11-28T20:54:55.928Z,-2.89
2016-11-28T20:56:11.683Z,-2.97
2016-11-28T20:57:28.191Z,-2.94
2016-11-28T20:58:42.897Z,-2.93
2016-11-28T20:59:58.800Z,-2.97
2016-11-28T21:01:13.194Z,-2.96
2016-11-28T21:02:28.604Z,-3
2016-11-28T21:03:43.355Z,-2.97
2016-11-28T21:04:59.800Z,-2.97
2016-11-28T21:06:16.616Z,-2.99
2016-11-28T21:07:31.319Z,-2.96
2016-11-28T21:08:47.231Z,-2.99
2016-11-28T21:10:00.959Z,-2.94
2016-11-28T21:11:16.882Z,-2.9
2016-11-28T21:12:31.368Z,-2.94
2016-11-28T21:13:45.720Z,-2.96
2016-11-28T21:15:01.815Z,-2.96
2016-11-28T21:16:17.896Z,-3.02
2016-11-28T21:17:33.981Z,-2.97
2016-11-28T21:18:50.354Z,-2.96
2016-11-28T21:20:07.050Z,-2.92
2016-11-28T21:21:21.831Z,-2.96
2016-11-28T21:22:36.743Z,-2.99
2016-11-28T21:23:51.262Z,-2.99
2016-11-28T21:25:08.451Z,-2.99
2016-11-28T21:26:25.309Z,-3.05
2016-11-28T21:27:39.186Z,-3.02
2016-11-28T21:28:51.077Z,-3.02
2016-11-28T21:30:04.733Z,-3.02
2016-11-28T21:31:17.802Z,-3.07
2016-11-28T21:32:32.458Z,-3.08
2016-11-28T21:33:46.484Z,-3.05
2016-11-28T21:35:02.795Z,-3.11
2016-11-28T21:36:18.876Z,-3.15
2016-11-28T21:37:35.037Z,-3.1
2016-11-28T21:38:50.615Z,-3.1
2016-11-28T21:40:07.138Z,-3.05
2016-11-28T21:41:23.813Z,-3.07
2016-11-28T21:42:38.503Z,-3.13
2016-11-28T21:43:52.369Z,-3.11
2016-11-28T21:45:07.236Z,-3.08
2016-11-28T21:46:22.040Z,-3.13
2016-11-28T21:47:37.777Z,-3.18
2016-11-28T21:48:52.466Z,-3.15
2016-11-28T21:50:07.112Z,-3.18
2016-11-28T21:51:21.134Z,-3.17
2016-11-28T21:52:35.823Z,-3.18
2016-11-28T21:53:50.930Z,-3.18
2016-11-28T21:55:04.436Z,-3.25
2016-11-28T21:56:20.875Z,-3.31
2016-11-28T21:57:37.173Z,-3.25
2016-11-28T21:58:50.749Z,-3.32
2016-11-28T22:00:06.903Z,-3.35
2016-11-28T22:01:20.312Z,-3.29
2016-11-28T22:02:33.989Z,-3.28
2016-11-28T22:03:49.340Z,-3.35
2016-11-28T22:05:04.048Z,-3.33
2016-11-28T22:06:19.869Z,-3.32
2016-11-28T22:07:36.480Z,-3.33
2016-11-28T22:08:52.627Z,-3.33
2016-11-28T22:10:09.339Z,-3.38
2016-11-28T22:11:22.083Z,-3.38
2016-11-28T22:12:36.867Z,-3.38
2016-11-28T22:13:51.951Z,-3.33
2016-11-28T22:15:05.628Z,-3.32
2016-11-28T22:16:21.965Z,-3.38
2016-11-28T22:17:36.945Z,-3.25
2016-11-28T22:18:49.075Z,-3.33
2016-11-28T22:20:03.157Z,-3.36
2016-11-28T22:21:18.141Z,-3.29
2016-11-28T22:22:33.023Z,-3.29
2016-11-28T22:23:47.369Z,-3.35
2016-11-28T22:25:03.880Z,-3.35
2016-11-28T22:26:19.134Z,-3.35
2016-11-28T22:27:35.549Z,-3.29
2016-11-28T22:28:51.209Z,-3.36
2016-11-28T22:30:06.026Z,-3.36
2016-11-28T22:31:21.125Z,-3.38
2016-11-28T22:32:36.100Z,-3.36
2016-11-28T22:33:50.855Z,-3.31
2016-11-28T22:35:06.256Z,-3.36
2016-11-28T22:36:22.808Z,-3.33
2016-11-28T22:37:35.136Z,-3.31
2016-11-28T22:38:51.180Z,-3.35
2016-11-28T22:40:04.690Z,-3.38
2016-11-28T22:41:19.344Z,-3.33
2016-11-28T22:42:33.054Z,-3.29
2016-11-28T22:43:46.675Z,-3.31
2016-11-28T22:45:00.324Z,-3.33
2016-11-28T22:46:15.237Z,-3.33
2016-11-28T22:47:30.685Z,-3.41
2016-11-28T22:48:45.248Z,-3.32
2016-11-28T22:49:57.450Z,-3.31
2016-11-28T22:51:10.844Z,-3.33
2016-11-28T22:52:25.256Z,-3.33
2016-11-28T22:53:40.629Z,-3.32
2016-11-28T22:54:56.405Z,-3.36
2016-11-28T22:56:11.094Z,-3.43
2016-11-28T22:57:26.183Z,-3.43
2016-11-28T22:58:42.566Z,-3.38
2016-11-28T22:59:55.371Z,-3.39
2016-11-28T23:01:10.115Z,-3.32
2016-11-28T23:02:25.993Z,-3.36
2016-11-28T23:03:40.923Z,-3.35
2016-11-28T23:04:57.207Z,-3.41
2016-11-28T23:06:11.930Z,-3.32
2016-11-28T23:07:25.587Z,-3.36
2016-11-28T23:08:38.873Z,-3.38
2016-11-28T23:09:52.324Z,-3.32
2016-11-28T23:11:09.061Z,-3.39
2016-11-28T23:12:25.283Z,-3.35
2016-11-28T23:13:39.884Z,-3.33
2016-11-28T23:14:55.125Z,-3.39
2016-11-28T23:16:10.454Z,-3.36
2016-11-28T23:17:26.090Z,-3.41
2016-11-28T23:18:42.869Z,-3.36
2016-11-28T23:19:57.581Z,-3.47
2016-11-28T23:21:12.736Z,-3.41
2016-11-28T23:22:28.363Z,-3.5
2016-11-28T23:23:45.059Z,-3.49
2016-11-28T23:25:01.343Z,-3.57
2016-11-28T23:26:15.618Z,-3.49
2016-11-28T23:27:30.541Z,-3.53
2016-11-28T23:28:46.767Z,-3.62
2016-11-28T23:30:02.021Z,-3.6
2016-11-28T23:31:16.482Z,-3.57
2016-11-28T23:32:31.976Z,-3.46
2016-11-28T23:33:46.688Z,-3.39
2016-11-28T23:35:01.354Z,-3.36
2016-11-28T23:36:17.314Z,-3.35
2016-11-28T23:37:32.023Z,-3.18
2016-11-28T23:38:45.642Z,-3.08
2016-11-28T23:39:58.747Z,-3.07
2016-11-28T23:41:13.293Z,-3.08
2016-11-28T23:42:28.014Z,-3.07
2016-11-28T23:43:44.843Z,-3.07
2016-11-28T23:45:00.523Z,-3.14
2016-11-28T23:46:15.410Z,-3.13
2016-11-28T23:47:28.971Z,-3.18
2016-11-28T23:48:43.346Z,-3.22
2016-11-28T23:49:56.648Z,-3.18
2016-11-28T23:51:12.376Z,-3.31